Airfield :
LOGIN :

Register | Disclaimer

   EN    FR    IT 

 










Legend :    VFR   Marginal VFR   IFR   Intensive IFR   Very Intensive IFR
Visi :
Ceiling :
>= 8 km
>= 3000ft
5 to 8 km
1000 to 3000 ft
1500m to 5 km
500 to 1000 ft
800 to 1500m
200 to 500 ft
< 800m
< 200 ft
Symbols :   Thunderstorms  Fog  Heavy snow  Heavy precipitations  Wind > 20 kt
SIGMETs :     Misc.  Thunderstorms  Icing  Turbulence  Mountain Waves  Volcanic Ashes






- Airport Elevation : 245 ft


ETHS - Fassberg

CURRENT METAR :
  • 231320Z VRB03KT 9999 VCSH BKN050 08/M05 Q1016 BLU BLU

EXPIRED METARs :
  • 231220Z 31006KT 9999 BKN050 08/M04 Q1017 BLU BLU
  • 231120Z 30004KT 9999 FEW045 BKN060 08/M05 Q1018 BLU BLU
  • 231020Z 26005KT 9999 FEW040 BKN050 07/M04 Q1019 BLU BLU
  • 230920Z 29006KT 9999 SCT045 06/M04 Q1019 BLU+BLU+

TAF TAF ETHS
Valid from the 23 at 14:00 until the 23 at 23:00 UTC


231315Z 2314/2323 24005KT 9999 NSW BKN050 BKN200



MET'MAP, your aeronautical weather chart ! - Copyright ORBIFLY December 2007 - Disclaimer

ORBIFLY MET'MAP TEAM :

Programming & Development : Alexandra Zaïnal
Original concept : Baudouin d'Aumeries
Technical & hardware support : Manuel Goepfert
Assistance : Marc-Olivier Méhu




SOURCES & CREDITS :

   NOAA